createdAt,value
2023-05-25T00:00:02.960Z,85.5
2023-05-25T00:15:02.391Z,86.7
2023-05-25T00:30:02.798Z,87.1
2023-05-25T00:45:03.269Z,87.6
2023-05-25T01:00:02.682Z,88.1
2023-05-25T01:15:03.261Z,91.3
2023-05-25T01:30:02.557Z,92.8
2023-05-25T01:45:02.982Z,93.1
2023-05-25T02:00:02.461Z,93.2
2023-05-25T02:15:02.873Z,93.5
2023-05-25T02:30:02.300Z,93.7
2023-05-25T02:45:02.751Z,93.5
2023-05-25T03:00:03.261Z,93.4
2023-05-25T03:15:02.657Z,93.3
2023-05-25T03:30:03.279Z,93.4
2023-05-25T03:45:02.534Z,93.3
2023-05-25T04:00:02.995Z,93.1
2023-05-25T04:15:02.405Z,92.7
2023-05-25T04:30:02.837Z,92.1
2023-05-25T04:45:02.291Z,91.7
2023-05-25T05:00:02.728Z,91.2
2023-05-25T05:15:03.363Z,90.6
2023-05-25T05:30:02.609Z,89.3
2023-05-25T05:45:03.326Z,88.8
2023-05-25T06:00:02.505Z,88.3
2023-05-25T06:15:02.939Z,87.2
2023-05-25T06:30:02.383Z,87.1
2023-05-25T06:45:02.837Z,87.2
2023-05-25T07:00:02.318Z,86.1
2023-05-25T07:15:02.701Z,83.4
2023-05-25T07:30:03.310Z,77.5
2023-05-25T07:45:02.563Z,74.1
2023-05-25T08:00:03.024Z,74.0
2023-05-25T08:15:02.454Z,72.6
2023-05-25T08:30:02.862Z,73.3
2023-05-25T08:45:02.366Z,71.9
2023-05-25T09:00:02.760Z,73.5
2023-05-25T09:15:03.353Z,72.7
2023-05-25T09:30:02.628Z,71.3
2023-05-25T09:45:03.074Z,69.0
2023-05-25T10:00:02.519Z,70.6
2023-05-25T10:15:02.953Z,67.7
2023-05-25T10:30:02.398Z,63.9
2023-05-25T10:45:02.806Z,66.0
2023-05-25T11:00:03.342Z,61.2
2023-05-25T11:15:02.695Z,64.5
2023-05-25T11:30:03.366Z,61.6
2023-05-25T11:45:02.596Z,60.9
2023-05-25T12:00:02.987Z,57.7
2023-05-25T12:15:02.420Z,57.5
2023-05-25T12:30:02.877Z,61.3
2023-05-25T12:45:02.380Z,56.2
2023-05-25T13:00:02.768Z,54.6
2023-05-25T13:15:03.382Z,52.5
2023-05-25T13:30:02.644Z,52.3
2023-05-25T13:45:03.090Z,50.4
2023-05-25T14:00:02.540Z,51.1
2023-05-25T14:15:02.980Z,46.0
2023-05-25T14:30:02.404Z,47.2
2023-05-25T14:45:02.851Z,47.6
2023-05-25T15:00:02.466Z,45.6
2023-05-25T15:15:02.729Z,47.7
2023-05-25T15:30:03.392Z,48.2
2023-05-25T15:45:02.618Z,46.1
2023-05-25T16:00:03.045Z,45.8
2023-05-25T16:15:02.491Z,48.5
2023-05-25T16:30:02.934Z,48.1
2023-05-25T16:45:02.417Z,49.7
2023-05-25T17:00:02.815Z,50.1
2023-05-25T17:15:03.409Z,49.4
2023-05-25T17:30:02.697Z,51.8
2023-05-25T17:45:03.110Z,52.9
2023-05-25T18:00:02.573Z,56.7
2023-05-25T18:15:02.994Z,57.6
2023-05-25T18:30:02.450Z,58.8
2023-05-25T18:45:02.877Z,61.5
2023-05-25T19:00:02.448Z,63.7
2023-05-25T19:15:02.758Z,65.4
2023-05-25T19:30:02.199Z,68.8
2023-05-25T19:45:02.612Z,70.4
2023-05-25T20:00:03.789Z,72.1
2023-05-25T20:15:03.499Z,72.9
2023-05-25T20:30:02.943Z,76.2
2023-05-25T20:45:02.447Z,78.1
2023-05-25T21:00:02.789Z,78.2
2023-05-25T21:15:03.460Z,79.6
2023-05-25T21:30:02.661Z,81.4
2023-05-25T21:45:03.128Z,82.6
2023-05-25T22:00:02.561Z,82.5
2023-05-25T22:15:02.984Z,84.6
2023-05-25T22:30:02.473Z,87.4
2023-05-25T22:45:02.877Z,87.0
2023-05-25T23:00:02.475Z,86.5
2023-05-25T23:15:02.767Z,86.6
2023-05-25T23:30:02.285Z,86.7
2023-05-25T23:45:02.642Z,86.8
